sensor_id;sensor_type;location;lat;lon;timestamp;pressure;altitude;pressure_sealevel;temperature
68440;BMP180;55421;51.600;5.718;2023-04-03T00:01:07;83350.40;;;2.90
68440;BMP180;55421;51.600;5.718;2023-04-03T00:03:34;85171.00;;;2.84
68440;BMP180;55421;51.600;5.718;2023-04-03T00:06:01;87940.40;;;2.80
68440;BMP180;55421;51.600;5.718;2023-04-03T00:08:27;86588.00;;;2.80
68440;BMP180;55421;51.600;5.718;2023-04-03T00:10:57;87864.00;;;2.74
68440;BMP180;55421;51.600;5.718;2023-04-03T00:13:25;92612.40;;;2.80
68440;BMP180;55421;51.600;5.718;2023-04-03T00:15:52;97843.60;;;2.80
68440;BMP180;55421;51.600;5.718;2023-04-03T00:18:20;98236.60;;;2.82
68440;BMP180;55421;51.600;5.718;2023-04-03T00:20:48;97250.60;;;2.90
68440;BMP180;55421;51.600;5.718;2023-04-03T00:23:14;96583.00;;;2.90
68440;BMP180;55421;51.600;5.718;2023-04-03T00:25:42;97268.20;;;2.90
68440;BMP180;55421;51.600;5.718;2023-04-03T00:28:09;94222.60;;;2.84
68440;BMP180;55421;51.600;5.718;2023-04-03T00:30:36;93167.40;;;2.80
68440;BMP180;55421;51.600;5.718;2023-04-03T00:33:02;74762.20;;;2.78
68440;BMP180;55421;51.600;5.718;2023-04-03T00:35:29;80512.40;;;2.70
68440;BMP180;55421;51.600;5.718;2023-04-03T00:37:56;81673.60;;;2.70
68440;BMP180;55421;51.600;5.718;2023-04-03T00:40:25;85464.00;;;2.70
68440;BMP180;55421;51.600;5.718;2023-04-03T00:42:58;90115.80;;;2.70
68440;BMP180;55421;51.600;5.718;2023-04-03T00:46:01;96398.60;;;2.70
68440;BMP180;55421;51.600;5.718;2023-04-03T00:48:28;93186.60;;;2.60
68440;BMP180;55421;51.600;5.718;2023-04-03T00:50:56;96646.80;;;2.60
68440;BMP180;55421;51.600;5.718;2023-04-03T00:53:49;97992.00;;;2.64
68440;BMP180;55421;51.600;5.718;2023-04-03T00:56:21;101820.60;;;2.68
68440;BMP180;55421;51.600;5.718;2023-04-03T00:59:04;103584.00;;;2.60
68440;BMP180;55421;51.600;5.718;2023-04-03T01:01:32;106745.40;;;2.60
68440;BMP180;55421;51.600;5.718;2023-04-03T01:04:01;111027.20;;;2.54
68440;BMP180;55421;51.600;5.718;2023-04-03T01:06:36;114466.80;;;2.50
68440;BMP180;55421;51.600;5.718;2023-04-03T01:09:04;117725.20;;;2.50
68440;BMP180;55421;51.600;5.718;2023-04-03T01:11:31;120268.20;;;2.50
68440;BMP180;55421;51.600;5.718;2023-04-03T01:13:58;120783.80;;;2.52
68440;BMP180;55421;51.600;5.718;2023-04-03T01:16:24;116521.00;;;2.52
68440;BMP180;55421;51.600;5.718;2023-04-03T01:18:51;117400.80;;;2.50
68440;BMP180;55421;51.600;5.718;2023-04-03T01:24:37;117187.40;;;2.60
68440;BMP180;55421;51.600;5.718;2023-04-03T01:27:08;118149.20;;;2.60
68440;BMP180;55421;51.600;5.718;2023-04-03T01:29:37;117254.40;;;2.60
68440;BMP180;55421;51.600;5.718;2023-04-03T01:32:04;120536.00;;;2.60
68440;BMP180;55421;51.600;5.718;2023-04-03T01:34:32;111754.00;;;2.60
68440;BMP180;55421;51.600;5.718;2023-04-03T01:36:58;86757.80;;;2.60
68440;BMP180;55421;51.600;5.718;2023-04-03T01:39:25;120979.40;;;2.50
68440;BMP180;55421;51.600;5.718;2023-04-03T01:41:51;117359.80;;;2.50
68440;BMP180;55421;51.600;5.718;2023-04-03T01:44:18;100935.00;;;2.44
68440;BMP180;55421;51.600;5.718;2023-04-03T01:46:45;98734.60;;;2.40
68440;BMP180;55421;51.600;5.718;2023-04-03T01:49:11;105297.60;;;2.40
68440;BMP180;55421;51.600;5.718;2023-04-03T01:51:38;99125.60;;;2.40
68440;BMP180;55421;51.600;5.718;2023-04-03T01:54:04;100951.00;;;2.38
68440;BMP180;55421;51.600;5.718;2023-04-03T01:56:31;99307.60;;;2.30
68440;BMP180;55421;51.600;5.718;2023-04-03T01:58:58;102783.60;;;2.30
68440;BMP180;55421;51.600;5.718;2023-04-03T02:01:24;104623.40;;;2.30
68440;BMP180;55421;51.600;5.718;2023-04-03T02:03:52;104581.00;;;2.30
68440;BMP180;55421;51.600;5.718;2023-04-03T02:06:19;108436.80;;;2.30
68440;BMP180;55421;51.600;5.718;2023-04-03T02:08:45;107069.60;;;2.30
68440;BMP180;55421;51.600;5.718;2023-04-03T02:11:12;111036.60;;;2.26
68440;BMP180;55421;51.600;5.718;2023-04-03T02:13:38;109425.60;;;2.20
68440;BMP180;55421;51.600;5.718;2023-04-03T02:16:10;111223.00;;;2.20
68440;BMP180;55421;51.600;5.718;2023-04-03T02:18:37;112801.80;;;2.20
68440;BMP180;55421;51.600;5.718;2023-04-03T02:21:04;115137.40;;;2.20
68440;BMP180;55421;51.600;5.718;2023-04-03T02:23:31;116260.20;;;2.20
68440;BMP180;55421;51.600;5.718;2023-04-03T02:26:11;115714.00;;;2.20
68440;BMP180;55421;51.600;5.718;2023-04-03T02:28:38;117838.00;;;2.20
68440;BMP180;55421;51.600;5.718;2023-04-03T02:31:05;120305.20;;;2.10
68440;BMP180;55421;51.600;5.718;2023-04-03T02:33:35;121181.00;;;2.10
68440;BMP180;55421;51.600;5.718;2023-04-03T02:36:07;120207.00;;;2.10
68440;BMP180;55421;51.600;5.718;2023-04-03T02:38:34;120487.40;;;2.10
68440;BMP180;55421;51.600;5.718;2023-04-03T02:41:07;126554.40;;;2.08
68440;BMP180;55421;51.600;5.718;2023-04-03T02:43:34;128395.40;;;2.10
68440;BMP180;55421;51.600;5.718;2023-04-03T02:46:01;132754.59;;;2.10
68440;BMP180;55421;51.600;5.718;2023-04-03T02:48:28;128665.60;;;2.10
68440;BMP180;55421;51.600;5.718;2023-04-03T02:50:55;122732.60;;;2.06
68440;BMP180;55421;51.600;5.718;2023-04-03T02:53:22;126769.60;;;2.00
68440;BMP180;55421;51.600;5.718;2023-04-03T02:55:49;128455.40;;;2.00
68440;BMP180;55421;51.600;5.718;2023-04-03T02:58:16;129815.00;;;1.98
68440;BMP180;55421;51.600;5.718;2023-04-03T03:00:42;129318.20;;;1.90
68440;BMP180;55421;51.600;5.718;2023-04-03T03:05:39;131444.59;;;1.90
68440;BMP180;55421;51.600;5.718;2023-04-03T03:08:06;133949.41;;;1.90
68440;BMP180;55421;51.600;5.718;2023-04-03T03:10:32;133631.41;;;1.90
68440;BMP180;55421;51.600;5.718;2023-04-03T03:12:58;133677.00;;;1.90
68440;BMP180;55421;51.600;5.718;2023-04-03T03:15:25;134335.59;;;1.90
68440;BMP180;55421;51.600;5.718;2023-04-03T03:17:53;136440.20;;;1.90
68440;BMP180;55421;51.600;5.718;2023-04-03T03:20:20;145783.00;;;1.84
68440;BMP180;55421;51.600;5.718;2023-04-03T03:22:47;148180.41;;;1.80
68440;BMP180;55421;51.600;5.718;2023-04-03T03:25:13;149681.00;;;1.80
68440;BMP180;55421;51.600;5.718;2023-04-03T03:27:40;149236.59;;;1.80
68440;BMP180;55421;51.600;5.718;2023-04-03T03:30:07;149539.20;;;1.80
68440;BMP180;55421;51.600;5.718;2023-04-03T03:32:34;149614.00;;;1.80
68440;BMP180;55421;51.600;5.718;2023-04-03T03:35:00;148705.00;;;1.80
68440;BMP180;55421;51.600;5.718;2023-04-03T03:37:26;146055.80;;;1.80
68440;BMP180;55421;51.600;5.718;2023-04-03T03:39:53;147959.59;;;1.80
68440;BMP180;55421;51.600;5.718;2023-04-03T03:42:20;147765.00;;;1.80
68440;BMP180;55421;51.600;5.718;2023-04-03T03:44:46;147971.80;;;1.70
68440;BMP180;55421;51.600;5.718;2023-04-03T03:47:13;146820.00;;;1.70
68440;BMP180;55421;51.600;5.718;2023-04-03T03:49:39;147496.20;;;1.60
68440;BMP180;55421;51.600;5.718;2023-04-03T03:52:07;147720.00;;;1.60
68440;BMP180;55421;51.600;5.718;2023-04-03T03:54:37;149071.59;;;1.60
68440;BMP180;55421;51.600;5.718;2023-04-03T03:57:04;147043.80;;;1.56
68440;BMP180;55421;51.600;5.718;2023-04-03T03:59:31;146320.80;;;1.50
68440;BMP180;55421;51.600;5.718;2023-04-03T04:01:57;143551.80;;;1.50
68440;BMP180;55421;51.600;5.718;2023-04-03T04:04:24;145018.80;;;1.50
68440;BMP180;55421;51.600;5.718;2023-04-03T04:06:50;143834.59;;;1.40
68440;BMP180;55421;51.600;5.718;2023-04-03T04:09:18;143969.59;;;1.40
68440;BMP180;55421;51.600;5.718;2023-04-03T04:11:44;142596.41;;;1.40
68440;BMP180;55421;51.600;5.718;2023-04-03T04:14:11;142378.41;;;1.36
68440;BMP180;55421;51.600;5.718;2023-04-03T04:16:39;140342.80;;;1.30
68440;BMP180;55421;51.600;5.718;2023-04-03T04:19:06;138368.20;;;1.30
68440;BMP180;55421;51.600;5.718;2023-04-03T04:21:32;139010.59;;;1.30
68440;BMP180;55421;51.600;5.718;2023-04-03T04:23:59;139224.41;;;1.30
68440;BMP180;55421;51.600;5.718;2023-04-03T04:26:25;138942.20;;;1.30
68440;BMP180;55421;51.600;5.718;2023-04-03T04:28:52;139524.41;;;1.30
68440;BMP180;55421;51.600;5.718;2023-04-03T04:31:18;140122.80;;;1.30
68440;BMP180;55421;51.600;5.718;2023-04-03T04:33:45;140295.41;;;1.20
68440;BMP180;55421;51.600;5.718;2023-04-03T04:36:11;142072.20;;;1.20
68440;BMP180;55421;51.600;5.718;2023-04-03T04:38:38;142688.00;;;1.20
68440;BMP180;55421;51.600;5.718;2023-04-03T04:41:04;141762.20;;;1.10
68440;BMP180;55421;51.600;5.718;2023-04-03T04:43:31;143403.59;;;1.10
68440;BMP180;55421;51.600;5.718;2023-04-03T04:46:09;142675.41;;;1.10
68440;BMP180;55421;51.600;5.718;2023-04-03T04:48:38;142997.59;;;1.10
68440;BMP180;55421;51.600;5.718;2023-04-03T04:51:06;143260.20;;;1.10
68440;BMP180;55421;51.600;5.718;2023-04-03T04:53:33;143076.41;;;1.10
68440;BMP180;55421;51.600;5.718;2023-04-03T04:56:00;142132.00;;;1.10
68440;BMP180;55421;51.600;5.718;2023-04-03T04:58:26;142769.41;;;1.10
68440;BMP180;55421;51.600;5.718;2023-04-03T05:01:08;141323.20;;;1.10
68440;BMP180;55421;51.600;5.718;2023-04-03T05:03:35;143964.00;;;1.10
68440;BMP180;55421;51.600;5.718;2023-04-03T05:06:03;142489.20;;;1.10
68440;BMP180;55421;51.600;5.718;2023-04-03T05:08:29;141900.00;;;1.06
68440;BMP180;55421;51.600;5.718;2023-04-03T05:10:56;141965.80;;;1.00
68440;BMP180;55421;51.600;5.718;2023-04-03T05:13:22;142023.59;;;1.00
68440;BMP180;55421;51.600;5.718;2023-04-03T05:15:49;142747.00;;;1.00
68440;BMP180;55421;51.600;5.718;2023-04-03T05:18:15;142422.41;;;1.00
68440;BMP180;55421;51.600;5.718;2023-04-03T05:20:42;143138.59;;;1.06
68440;BMP180;55421;51.600;5.718;2023-04-03T05:23:10;142398.80;;;1.10
68440;BMP180;55421;51.600;5.718;2023-04-03T05:25:38;142331.00;;;1.10
68440;BMP180;55421;51.600;5.718;2023-04-03T05:28:06;141982.00;;;1.10
68440;BMP180;55421;51.600;5.718;2023-04-03T05:30:33;142908.59;;;1.10
68440;BMP180;55421;51.600;5.718;2023-04-03T05:32:59;143505.00;;;1.10
68440;BMP180;55421;51.600;5.718;2023-04-03T05:35:26;143046.20;;;1.20
68440;BMP180;55421;51.600;5.718;2023-04-03T05:37:52;143264.00;;;1.20
68440;BMP180;55421;51.600;5.718;2023-04-03T05:40:19;143222.00;;;1.26
68440;BMP180;55421;51.600;5.718;2023-04-03T05:42:46;143215.20;;;1.30
68440;BMP180;55421;51.600;5.718;2023-04-03T05:45:12;141980.59;;;1.30
68440;BMP180;55421;51.600;5.718;2023-04-03T05:47:39;141813.59;;;1.30
68440;BMP180;55421;51.600;5.718;2023-04-03T05:50:06;142195.41;;;1.38
68440;BMP180;55421;51.600;5.718;2023-04-03T05:52:37;142035.20;;;1.40
68440;BMP180;55421;51.600;5.718;2023-04-03T05:55:04;142644.59;;;1.40
68440;BMP180;55421;51.600;5.718;2023-04-03T05:57:31;142070.59;;;1.44
68440;BMP180;55421;51.600;5.718;2023-04-03T05:59:58;140883.41;;;1.50
68440;BMP180;55421;51.600;5.718;2023-04-03T06:02:24;140916.80;;;1.52
68440;BMP180;55421;51.600;5.718;2023-04-03T06:04:52;140599.80;;;1.60
68440;BMP180;55421;51.600;5.718;2023-04-03T06:07:24;139976.20;;;1.60
68440;BMP180;55421;51.600;5.718;2023-04-03T06:09:56;137802.20;;;1.60
68440;BMP180;55421;51.600;5.718;2023-04-03T06:12:23;136497.41;;;1.66
68440;BMP180;55421;51.600;5.718;2023-04-03T06:14:50;135888.59;;;1.70
68440;BMP180;55421;51.600;5.718;2023-04-03T06:17:17;133412.00;;;1.70
68440;BMP180;55421;51.600;5.718;2023-04-03T06:19:45;130755.60;;;1.70
68440;BMP180;55421;51.600;5.718;2023-04-03T06:22:11;130072.60;;;1.74
68440;BMP180;55421;51.600;5.718;2023-04-03T06:24:39;128272.00;;;1.80
68440;BMP180;55421;51.600;5.718;2023-04-03T06:27:05;124466.20;;;1.80
68440;BMP180;55421;51.600;5.718;2023-04-03T06:29:32;121364.40;;;1.90
68440;BMP180;55421;51.600;5.718;2023-04-03T06:31:58;118232.80;;;1.90
68440;BMP180;55421;51.600;5.718;2023-04-03T06:34:25;114873.40;;;2.00
68440;BMP180;55421;51.600;5.718;2023-04-03T06:36:51;113930.20;;;2.00
68440;BMP180;55421;51.600;5.718;2023-04-03T06:39:21;116010.20;;;2.08
68440;BMP180;55421;51.600;5.718;2023-04-03T06:41:50;118568.80;;;2.10
68440;BMP180;55421;51.600;5.718;2023-04-03T06:44:17;116269.20;;;2.20
68440;BMP180;55421;51.600;5.718;2023-04-03T06:46:44;109300.40;;;2.22
68440;BMP180;55421;51.600;5.718;2023-04-03T06:49:12;103235.00;;;2.30
68440;BMP180;55421;51.600;5.718;2023-04-03T06:51:39;104873.00;;;2.32
68440;BMP180;55421;51.600;5.718;2023-04-03T06:54:06;104248.00;;;2.40
68440;BMP180;55421;51.600;5.718;2023-04-03T06:56:35;102972.20;;;2.50
68440;BMP180;55421;51.600;5.718;2023-04-03T06:59:02;100229.00;;;2.50
68440;BMP180;55421;51.600;5.718;2023-04-03T07:01:29;95961.00;;;2.60
68440;BMP180;55421;51.600;5.718;2023-04-03T07:03:57;91170.00;;;2.60
68440;BMP180;55421;51.600;5.718;2023-04-03T07:06:24;89934.20;;;2.70
68440;BMP180;55421;51.600;5.718;2023-04-03T07:08:54;91935.20;;;2.80
68440;BMP180;55421;51.600;5.718;2023-04-03T07:11:20;90265.20;;;2.84
68440;BMP180;55421;51.600;5.718;2023-04-03T07:13:47;77306.00;;;2.90
68440;BMP180;55421;51.600;5.718;2023-04-03T07:16:14;71762.40;;;2.90
68440;BMP180;55421;51.600;5.718;2023-04-03T07:18:41;70123.00;;;2.90
68440;BMP180;55421;51.600;5.718;2023-04-03T07:21:07;68414.20;;;2.92
68440;BMP180;55421;51.600;5.718;2023-04-03T07:23:34;60796.00;;;3.00
68440;BMP180;55421;51.600;5.718;2023-04-03T07:26:00;32130.00;;;3.06
68440;BMP180;55421;51.600;5.718;2023-04-03T07:28:27;32486.40;;;3.10
68440;BMP180;55421;51.600;5.718;2023-04-03T07:31:07;35216.40;;;3.10
68440;BMP180;55421;51.600;5.718;2023-04-03T07:33:35;63995.60;;;3.20
68440;BMP180;55421;51.600;5.718;2023-04-03T07:36:01;57589.20;;;3.30
68440;BMP180;55421;51.600;5.718;2023-04-03T07:38:28;38981.20;;;3.30
68440;BMP180;55421;51.600;5.718;2023-04-03T07:40:55;37450.60;;;3.40
68440;BMP180;55421;51.600;5.718;2023-04-03T07:43:22;21214.40;;;3.50
68440;BMP180;55421;51.600;5.718;2023-04-03T07:45:51;14836.00;;;3.50
68440;BMP180;55421;51.600;5.718;2023-04-03T07:48:20;146197.20;;;3.60
68440;BMP180;55421;51.600;5.718;2023-04-03T07:50:47;20703.20;;;3.62
68440;BMP180;55421;51.600;5.718;2023-04-03T07:53:14;18628.00;;;3.70
68440;BMP180;55421;51.600;5.718;2023-04-03T07:55:41;19831.60;;;3.80
68440;BMP180;55421;51.600;5.718;2023-04-03T07:58:13;58850.40;;;3.90
68440;BMP180;55421;51.600;5.718;2023-04-03T08:00:41;189320.41;;;3.90
68440;BMP180;55421;51.600;5.718;2023-04-03T08:03:11;229906.20;;;3.90
68440;BMP180;55421;51.600;5.718;2023-04-03T08:05:40;228225.80;;;4.00
68440;BMP180;55421;51.600;5.718;2023-04-03T08:08:09;228940.41;;;4.00
68440;BMP180;55421;51.600;5.718;2023-04-03T08:10:36;229716.20;;;4.10
68440;BMP180;55421;51.600;5.718;2023-04-03T08:13:03;222795.59;;;4.18
68440;BMP180;55421;51.600;5.718;2023-04-03T08:15:31;223197.20;;;4.20
68440;BMP180;55421;51.600;5.718;2023-04-03T08:17:59;218603.80;;;4.30
68440;BMP180;55421;51.600;5.718;2023-04-03T08:20:26;216934.59;;;4.30
68440;BMP180;55421;51.600;5.718;2023-04-03T08:22:53;216868.80;;;4.30
68440;BMP180;55421;51.600;5.718;2023-04-03T08:25:20;216868.80;;;4.40
68440;BMP180;55421;51.600;5.718;2023-04-03T08:27:47;216899.80;;;4.40
68440;BMP180;55421;51.600;5.718;2023-04-03T08:30:13;216917.59;;;4.48
68440;BMP180;55421;51.600;5.718;2023-04-03T08:32:40;216938.80;;;4.50
68440;BMP180;55421;51.600;5.718;2023-04-03T08:35:09;216948.41;;;4.50
68440;BMP180;55421;51.600;5.718;2023-04-03T08:37:38;216986.80;;;4.60
68440;BMP180;55421;51.600;5.718;2023-04-03T08:40:13;217020.00;;;4.60
68440;BMP180;55421;51.600;5.718;2023-04-03T08:43:03;217016.80;;;4.60
68440;BMP180;55421;51.600;5.718;2023-04-03T08:45:48;217046.41;;;4.70
68440;BMP180;55421;51.600;5.718;2023-04-03T08:48:29;217093.80;;;4.80
68440;BMP180;55421;51.600;5.718;2023-04-03T08:51:02;217126.20;;;4.82
68440;BMP180;55421;51.600;5.718;2023-04-03T08:53:35;217151.20;;;4.90
68440;BMP180;55421;51.600;5.718;2023-04-03T08:56:07;217192.41;;;4.90
68440;BMP180;55421;51.600;5.718;2023-04-03T08:58:58;217225.00;;;5.00
68440;BMP180;55421;51.600;5.718;2023-04-03T09:01:34;217293.41;;;5.12
68440;BMP180;55421;51.600;5.718;2023-04-03T09:04:05;217326.80;;;5.20
68440;BMP180;55421;51.600;5.718;2023-04-03T09:06:38;217363.20;;;5.24
68440;BMP180;55421;51.600;5.718;2023-04-03T09:09:24;217391.59;;;5.30
68440;BMP180;55421;51.600;5.718;2023-04-03T09:12:12;217435.41;;;5.40
68440;BMP180;55421;51.600;5.718;2023-04-03T09:20:24;217526.00;;;5.50
68440;BMP180;55421;51.600;5.718;2023-04-03T09:22:52;217568.80;;;5.60
68440;BMP180;55421;51.600;5.718;2023-04-03T09:25:27;217609.80;;;5.70
68440;BMP180;55421;51.600;5.718;2023-04-03T09:27:56;217655.00;;;5.80
68440;BMP180;55421;51.600;5.718;2023-04-03T09:30:26;217708.80;;;5.90
68440;BMP180;55421;51.600;5.718;2023-04-03T09:32:57;217742.80;;;5.90
68440;BMP180;55421;51.600;5.718;2023-04-03T09:35:26;217756.00;;;5.90
68440;BMP180;55421;51.600;5.718;2023-04-03T09:37:59;217755.20;;;5.90
68440;BMP180;55421;51.600;5.718;2023-04-03T09:42:58;217760.00;;;5.90
68440;BMP180;55421;51.600;5.718;2023-04-03T09:45:32;217769.00;;;5.98
68440;BMP180;55421;51.600;5.718;2023-04-03T09:50:55;217834.20;;;6.10
68440;BMP180;55421;51.600;5.718;2023-04-03T10:01:32;217985.41;;;6.40
68440;BMP180;55421;51.600;5.718;2023-04-03T10:04:11;218037.80;;;6.50
68440;BMP180;55421;51.600;5.718;2023-04-03T10:06:48;218083.59;;;6.50
68440;BMP180;55421;51.600;5.718;2023-04-03T10:09:31;218100.41;;;6.60
68440;BMP180;55421;51.600;5.718;2023-04-03T10:12:09;218148.00;;;6.60
68440;BMP180;55421;51.600;5.718;2023-04-03T10:14:53;218185.59;;;6.70
68440;BMP180;55421;51.600;5.718;2023-04-03T10:17:52;218237.59;;;6.80
68440;BMP180;55421;51.600;5.718;2023-04-03T10:20:43;218285.59;;;6.90
68440;BMP180;55421;51.600;5.718;2023-04-03T10:23:27;218306.00;;;6.90
68440;BMP180;55421;51.600;5.718;2023-04-03T10:26:32;218327.59;;;6.98
68440;BMP180;55421;51.600;5.718;2023-04-03T10:32:43;218391.41;;;7.10
68440;BMP180;55421;51.600;5.718;2023-04-03T10:38:29;218505.00;;;7.30
68440;BMP180;55421;51.600;5.718;2023-04-03T10:41:32;218559.80;;;7.40
68440;BMP180;55421;51.600;5.718;2023-04-03T10:44:29;218586.20;;;7.40
68440;BMP180;55421;51.600;5.718;2023-04-03T10:47:41;218607.41;;;7.50
68440;BMP180;55421;51.600;5.718;2023-04-03T10:50:36;218624.59;;;7.50
68440;BMP180;55421;51.600;5.718;2023-04-03T10:59:08;218703.00;;;7.60
68440;BMP180;55421;51.600;5.718;2023-04-03T11:01:42;218709.80;;;7.60
68440;BMP180;55421;51.600;5.718;2023-04-03T11:04:11;218750.20;;;7.70
68440;BMP180;55421;51.600;5.718;2023-04-03T11:06:51;218804.41;;;7.80
68440;BMP180;55421;51.600;5.718;2023-04-03T11:09:28;218848.80;;;7.90
68440;BMP180;55421;51.600;5.718;2023-04-03T11:12:04;218900.00;;;8.00
68440;BMP180;55421;51.600;5.718;2023-04-03T11:14:35;218928.80;;;8.02
68440;BMP180;55421;51.600;5.718;2023-04-03T11:17:11;218980.00;;;8.10
68440;BMP180;55421;51.600;5.718;2023-04-03T11:19:50;218967.80;;;8.10
68440;BMP180;55421;51.600;5.718;2023-04-03T11:22:47;218937.41;;;8.10
68440;BMP180;55421;51.600;5.718;2023-04-03T11:25:23;218932.59;;;8.04
68440;BMP180;55421;51.600;5.718;2023-04-03T11:28:11;218958.20;;;8.10
68440;BMP180;55421;51.600;5.718;2023-04-03T11:36:40;219049.20;;;8.22
68440;BMP180;55421;51.600;5.718;2023-04-03T11:39:32;219041.59;;;8.20
68440;BMP180;55421;51.600;5.718;2023-04-03T11:42:37;219063.20;;;8.30
68440;BMP180;55421;51.600;5.718;2023-04-03T11:45:32;219115.80;;;8.40
68440;BMP180;55421;51.600;5.718;2023-04-03T11:48:41;219123.80;;;8.40
68440;BMP180;55421;51.600;5.718;2023-04-03T11:53:44;219146.59;;;8.40
68440;BMP180;55421;51.600;5.718;2023-04-03T11:56:31;219156.20;;;8.40
68440;BMP180;55421;51.600;5.718;2023-04-03T12:01:48;219183.80;;;8.50
68440;BMP180;55421;51.600;5.718;2023-04-03T12:04:19;219184.20;;;8.50
68440;BMP180;55421;51.600;5.718;2023-04-03T12:14:55;219221.59;;;8.52
68440;BMP180;55421;51.600;5.718;2023-04-03T12:17:27;219251.80;;;8.60
68440;BMP180;55421;51.600;5.718;2023-04-03T12:19:55;219241.00;;;8.60
68440;BMP180;55421;51.600;5.718;2023-04-03T12:22:22;219235.80;;;8.60
68440;BMP180;55421;51.600;5.718;2023-04-03T12:24:51;219249.00;;;8.60
68440;BMP180;55421;51.600;5.718;2023-04-03T12:27:34;219243.41;;;8.60
68440;BMP180;55421;51.600;5.718;2023-04-03T12:30:12;219274.20;;;8.60
68440;BMP180;55421;51.600;5.718;2023-04-03T12:38:51;219286.20;;;8.70
68440;BMP180;55421;51.600;5.718;2023-04-03T12:44:42;219271.00;;;8.60
68440;BMP180;55421;51.600;5.718;2023-04-03T12:47:27;219289.80;;;8.70
68440;BMP180;55421;51.600;5.718;2023-04-03T12:49:54;219308.20;;;8.70
68440;BMP180;55421;51.600;5.718;2023-04-03T12:52:45;219321.41;;;8.70
68440;BMP180;55421;51.600;5.718;2023-04-03T12:55:18;219324.20;;;8.70
68440;BMP180;55421;51.600;5.718;2023-04-03T12:57:44;219319.80;;;8.70
68440;BMP180;55421;51.600;5.718;2023-04-03T13:00:31;219322.59;;;8.70
68440;BMP180;55421;51.600;5.718;2023-04-03T13:03:02;219281.80;;;8.70
68440;BMP180;55421;51.600;5.718;2023-04-03T13:05:31;219290.20;;;8.70
68440;BMP180;55421;51.600;5.718;2023-04-03T13:08:05;219328.59;;;8.70
68440;BMP180;55421;51.600;5.718;2023-04-03T13:10:55;219329.00;;;8.70
68440;BMP180;55421;51.600;5.718;2023-04-03T13:13:24;219340.59;;;8.76
68440;BMP180;55421;51.600;5.718;2023-04-03T13:15:53;219334.59;;;8.76
68440;BMP180;55421;51.600;5.718;2023-04-03T13:18:32;219349.41;;;8.80
68440;BMP180;55421;51.600;5.718;2023-04-03T13:21:07;219340.59;;;8.80
68440;BMP180;55421;51.600;5.718;2023-04-03T13:23:43;219349.41;;;8.80
68440;BMP180;55421;51.600;5.718;2023-04-03T13:26:12;219388.80;;;8.84
68440;BMP180;55421;51.600;5.718;2023-04-03T13:28:40;219408.00;;;8.90
68440;BMP180;55421;51.600;5.718;2023-04-03T13:31:32;219433.20;;;8.90
68440;BMP180;55421;51.600;5.718;2023-04-03T13:34:09;219432.00;;;8.90
68440;BMP180;55421;51.600;5.718;2023-04-03T13:36:44;219442.80;;;8.92
68440;BMP180;55421;51.600;5.718;2023-04-03T13:41:49;219486.20;;;9.00
68440;BMP180;55421;51.600;5.718;2023-04-03T13:47:37;219438.00;;;8.90
68440;BMP180;55421;51.600;5.718;2023-04-03T13:49:59;219438.41;;;8.92
68440;BMP180;55421;51.600;5.718;2023-04-03T13:52:40;219442.80;;;8.90
68440;BMP180;55421;51.600;5.718;2023-04-03T13:55:19;219426.80;;;8.90
68440;BMP180;55421;51.600;5.718;2023-04-03T13:57:58;219403.59;;;8.90
68440;BMP180;55421;51.600;5.718;2023-04-03T14:00:47;219406.80;;;8.90
68440;BMP180;55421;51.600;5.718;2023-04-03T14:03:28;219420.80;;;8.90
68440;BMP180;55421;51.600;5.718;2023-04-03T14:05:56;219454.00;;;8.96
68440;BMP180;55421;51.600;5.718;2023-04-03T14:08:22;219462.00;;;9.00
68440;BMP180;55421;51.600;5.718;2023-04-03T14:10:50;219498.20;;;9.02
68440;BMP180;55421;51.600;5.718;2023-04-03T14:13:19;219505.59;;;9.10
68440;BMP180;55421;51.600;5.718;2023-04-03T14:15:47;219486.20;;;9.00
68440;BMP180;55421;51.600;5.718;2023-04-03T14:18:19;219461.59;;;9.00
68440;BMP180;55421;51.600;5.718;2023-04-03T14:20:49;219460.41;;;9.00
68440;BMP180;55421;51.600;5.718;2023-04-03T14:23:16;219448.41;;;8.96
68440;BMP180;55421;51.600;5.718;2023-04-03T14:25:42;219425.20;;;8.90
68440;BMP180;55421;51.600;5.718;2023-04-03T14:28:19;219436.00;;;8.90
68440;BMP180;55421;51.600;5.718;2023-04-03T14:30:50;219460.00;;;9.00
68440;BMP180;55421;51.600;5.718;2023-04-03T14:33:21;219462.80;;;9.00
68440;BMP180;55421;51.600;5.718;2023-04-03T14:35:48;219444.41;;;8.90
68440;BMP180;55421;51.600;5.718;2023-04-03T14:38:24;219410.80;;;8.90
68440;BMP180;55421;51.600;5.718;2023-04-03T14:40:53;219433.20;;;8.90
68440;BMP180;55421;51.600;5.718;2023-04-03T14:43:20;219458.80;;;9.00
68440;BMP180;55421;51.600;5.718;2023-04-03T14:45:48;219455.59;;;9.00
68440;BMP180;55421;51.600;5.718;2023-04-03T14:48:25;219427.20;;;8.90
68440;BMP180;55421;51.600;5.718;2023-04-03T14:50:54;219384.41;;;8.80
68440;BMP180;55421;51.600;5.718;2023-04-03T14:53:21;219383.20;;;8.80
68440;BMP180;55421;51.600;5.718;2023-04-03T14:55:52;219394.80;;;8.86
68440;BMP180;55421;51.600;5.718;2023-04-03T14:58:20;219403.59;;;8.90
68440;BMP180;55421;51.600;5.718;2023-04-03T15:00:47;219409.59;;;8.90
68440;BMP180;55421;51.600;5.718;2023-04-03T15:03:20;219403.59;;;8.90
68440;BMP180;55421;51.600;5.718;2023-04-03T15:05:49;219410.80;;;8.90
68440;BMP180;55421;51.600;5.718;2023-04-03T15:08:21;219428.41;;;8.90
68440;BMP180;55421;51.600;5.718;2023-04-03T15:10:49;219434.80;;;8.90
68440;BMP180;55421;51.600;5.718;2023-04-03T15:13:16;219440.00;;;8.92
68440;BMP180;55421;51.600;5.718;2023-04-03T15:15:42;219438.41;;;8.90
68440;BMP180;55421;51.600;5.718;2023-04-03T15:18:17;219427.59;;;8.90
68440;BMP180;55421;51.600;5.718;2023-04-03T15:20:46;219405.20;;;8.90
68440;BMP180;55421;51.600;5.718;2023-04-03T15:23:16;219377.41;;;8.80
68440;BMP180;55421;51.600;5.718;2023-04-03T15:25:45;219368.00;;;8.80
68440;BMP180;55421;51.600;5.718;2023-04-03T15:28:42;219368.00;;;8.80
68440;BMP180;55421;51.600;5.718;2023-04-03T15:31:09;219325.80;;;8.70
68440;BMP180;55421;51.600;5.718;2023-04-03T15:33:36;219306.59;;;8.70
68440;BMP180;55421;51.600;5.718;2023-04-03T15:36:04;219299.00;;;8.70
68440;BMP180;55421;51.600;5.718;2023-04-03T15:38:31;219306.59;;;8.70
68440;BMP180;55421;51.600;5.718;2023-04-03T15:41:00;219318.20;;;8.70
68440;BMP180;55421;51.600;5.718;2023-04-03T15:43:27;219315.41;;;8.70
68440;BMP180;55421;51.600;5.718;2023-04-03T15:45:57;219295.80;;;8.70